Estación Meteorológica Peña el Pijo (Robertgarden) [ 01/30/23 14:56:00 CET ]

Fecha Hora Presion(HPa) Temp (°C) Humedad % Rocio (°C) Viento ( m/s) Direccion Lluvia 1Hora(mm) Lluvia 24H(mm) LLuvia Total(mm)
2010-Feb-22 01:01:17 996.800 4.6 88 2.8       1.03 77.70
2010-Feb-22 02:03:08 996.200 6.6 85 4.2 2.4 SE   1.03 77.70
2010-Feb-22 03:01:16 995.800 6.8 81 3.8       1.03 77.70
2010-Feb-22 04:01:15 995.300 6.9 79 3.5       1.03 77.70
2010-Feb-22 05:01:12 994.700 7.1 77 3.3       1.03 77.70
2010-Feb-22 06:01:13 994.500 6.8 75 2.7       1.03 77.70
2010-Feb-22 07:01:16 994.100 6.2 76 2.3       1.03 77.70
2010-Feb-22 08:01:20 993.900 7.9 74 3.6       1.03 77.70
2010-Feb-22 09:01:11 994.100 9.4 72 4.6       1.03 77.70
2010-Feb-22 10:01:17 994.200 12.2 65 5.8       1.03 77.70
2010-Feb-22 11:01:15 994.900 11.1 64 4.6 3.0 SSE   1.03 77.70
2010-Feb-22 12:01:12 995.800 11.6 64 5.0       1.03 77.70
2010-Feb-22 13:01:13 995.300 15.4 54 6.1 1.7 SSE   1.03 77.70
2010-Feb-22 14:01:17 995.300 15.1 48 4.2 4.9 E   1.03 77.70
2010-Feb-22 15:01:18 995.300 15.3 44 3.0 1.4 SW   1.03 77.70
2010-Feb-22 16:01:14 995.800 14.4 46 2.9       1.03 77.70
2010-Feb-22 17:01:10 996.500 13.4 47 2.2 2.7 ESE     77.70
2010-Feb-22 18:01:13 997.000 11.1 56 2.6         77.70
2010-Feb-22 19:01:13 997.700 9.6 64 3.1         77.70
2010-Feb-22 20:01:13 998.200 8.4 71 3.5         77.70
2010-Feb-22 21:01:11 998.500 9.2 64 2.7         77.70
2010-Feb-22 22:01:13 999.100 8.9 68 3.3         77.70
2010-Feb-22 23:01:12 999.500 7.4 78 3.8         77.70

Temperatura Máxima:15°    Temperatura Mínima:
Presión Máxima:999.500 Hpa    Presión Mínima:993.900 Hpa


Volver